logo
Search for airport 
image banner adimage banner adimage banner ad
image banner ad

LDRG - Grobnik / Grobnicko Polje

Located in Rijeka, Croatia

ICAO - LDRG, IATA -

Data provided by Airmate  

General information

Coordinates: N45°22'46" E14°30'13"
Elevation is 1012 feet MSL.
Magnetic variation is +004° East
View others Airports in Primorje-Gorski Kotar

Operational data

Special qualification required
Current time UTC:
Current local time:
Weather at : LDRI - Rijeka / Krk I ( 19 km )
METAR: LDRI 251500Z VRB05KT 9999 FEW050 30/13 Q1011
TAF: TAF LDRI 251125Z 2512/2612 25006KT CAVOK TX31/2513Z TN22/2604Z PROB40 TEMPO 2512/2516 32008KT TEMPO 2609/2612 29008KT
View NOTAMs / SUP AIP / TFR affecting this airport [VIEW]
Communications frequencies: [VIEW]

Runways:

RWY identifierQFULength (ft)Width (ft)SurfaceLDA (ft)
0775°518596ASPH5243
25255°518596ASPH5243

Airport contact information

Address: Rijeka Croatia

Satellite view of LDRG